RYR32BD LPPR-LEPA
Flight info
| Callsign | RYR32BD |
|---|---|
| Flight time | 1h 26m |
| Altitude | 31000 |
| Route | PESUL DCT RIVRO DCT BARDI/N0417F320 M191 DIPOL/N0423F340 M871 NVS/N0430F350 DCT NANDO DCT MINGU DCT ABOSI DCT MABUX DCT RETBA DCT MOPIR DCT LASPO/N0370F260 M871 GODOX |
| Aircraft | B738/M-SDE3FGILRWY/SB1 |
Departure
| Time | 2026-05-07 19:15 |
|---|---|
| Airport | Francisco de Sá Carneiro Airport (LPPR) |
Arrival
| Time | 2026-05-07 20:41 |
|---|---|
| Airport | Palma de Mallorca Airport (LEPA) |
| Time | Latitude | Longitude | Altitude | Speed | Heading |
|---|---|---|---|---|---|
| 2026-05-07 18:48 | 41.23831 | -8.67385 | 230 ft | 0 kts | 78° |
| 2026-05-07 19:05 | 41.23830 | -8.67393 | 229 ft | 2 kts | 78° |
| 2026-05-07 19:06 | 41.23827 | -8.67412 | 229 ft | 2 kts | 78° |
| 2026-05-07 19:06 | 41.23826 | -8.67452 | 227 ft | 2 kts | 112° |
| 2026-05-07 19:06 | 41.23834 | -8.67469 | 226 ft | 2 kts | 133° |
| 2026-05-07 19:07 | 41.23846 | -8.67480 | 226 ft | 2 kts | 153° |
| 2026-05-07 19:07 | 41.23860 | -8.67487 | 226 ft | 2 kts | 173° |
| 2026-05-07 19:07 | 41.23875 | -8.67490 | 225 ft | 2 kts | 167° |
| 2026-05-07 19:07 | 41.23880 | -8.67491 | 225 ft | 0 kts | 167° |
| 2026-05-07 19:10 | 41.23871 | -8.67489 | 225 ft | 5 kts | 167° |
| 2026-05-07 19:10 | 41.23802 | -8.67470 | 227 ft | 9 kts | 168° |
| 2026-05-07 19:10 | 41.23731 | -8.67452 | 229 ft | 13 kts | 169° |
| 2026-05-07 19:11 | 41.23632 | -8.67426 | 229 ft | 15 kts | 169° |
| 2026-05-07 19:11 | 41.23531 | -8.67400 | 231 ft | 13 kts | 168° |
| 2026-05-07 19:11 | 41.23436 | -8.67374 | 232 ft | 13 kts | 168° |
| 2026-05-07 19:11 | 41.23355 | -8.67378 | 233 ft | 11 kts | 218° |
| 2026-05-07 19:12 | 41.23328 | -8.67482 | 230 ft | 13 kts | 261° |
| 2026-05-07 19:12 | 41.23319 | -8.67555 | 227 ft | 1 kts | 256° |
| 2026-05-07 19:12 | 41.23314 | -8.67581 | 227 ft | 2 kts | 255° |
| 2026-05-07 19:12 | 41.23313 | -8.67586 | 227 ft | 1 kts | 255° |
| 2026-05-07 19:13 | 41.23305 | -8.67625 | 226 ft | 5 kts | 253° |
| 2026-05-07 19:13 | 41.23293 | -8.67680 | 225 ft | 6 kts | 253° |
| 2026-05-07 19:13 | 41.23305 | -8.67732 | 224 ft | 7 kts | 338° |
| 2026-05-07 19:13 | 41.23314 | -8.67735 | 224 ft | 0 kts | 349° |
| 2026-05-07 19:14 | 41.23444 | -8.67769 | 223 ft | 53 kts | 348° |
| 2026-05-07 19:14 | 41.24028 | -8.67922 | 213 ft | 117 kts | 348° |
| 2026-05-07 19:14 | 41.25013 | -8.68180 | 215 ft | 166 kts | 348° |
| 2026-05-07 19:15 | 41.26102 | -8.68446 | 966 ft | 157 kts | 348° |
| 2026-05-07 19:15 | 41.27240 | -8.68695 | 1395 ft | 175 kts | 350° |
| 2026-05-07 19:15 | 41.28496 | -8.68974 | 1863 ft | 190 kts | 348° |
| 2026-05-07 19:15 | 41.29840 | -8.69368 | 2287 ft | 205 kts | 346° |
| 2026-05-07 19:16 | 41.31292 | -8.69809 | 2733 ft | 220 kts | 346° |
| 2026-05-07 19:16 | 41.32844 | -8.70131 | 3134 ft | 237 kts | 0° |
| 2026-05-07 19:16 | 41.34423 | -8.69425 | 3598 ft | 253 kts | 36° |
| 2026-05-07 19:16 | 41.35536 | -8.67526 | 4013 ft | 269 kts | 70° |
| 2026-05-07 19:17 | 41.35772 | -8.65088 | 4709 ft | 269 kts | 96° |
| 2026-05-07 19:17 | 41.35336 | -8.62721 | 5450 ft | 268 kts | 112° |
| 2026-05-07 19:17 | 41.34605 | -8.60445 | 6215 ft | 269 kts | 117° |
| 2026-05-07 19:17 | 41.33823 | -8.58190 | 6994 ft | 270 kts | 117° |
| 2026-05-07 19:18 | 41.33058 | -8.55930 | 7715 ft | 273 kts | 116° |
| 2026-05-07 19:18 | 41.32300 | -8.53606 | 8498 ft | 275 kts | 116° |
| 2026-05-07 19:18 | 41.31554 | -8.51271 | 9280 ft | 276 kts | 115° |
| 2026-05-07 19:18 | 41.30809 | -8.48929 | 10053 ft | 279 kts | 115° |
| 2026-05-07 19:19 | 41.30043 | -8.46529 | 10551 ft | 292 kts | 115° |
| 2026-05-07 19:19 | 41.29224 | -8.43969 | 10974 ft | 308 kts | 115° |
| 2026-05-07 19:19 | 41.28366 | -8.41291 | 11407 ft | 323 kts | 115° |
| 2026-05-07 19:19 | 41.27479 | -8.38517 | 11870 ft | 336 kts | 115° |
| 2026-05-07 19:20 | 41.26550 | -8.35610 | 12526 ft | 344 kts | 115° |
| 2026-05-07 19:20 | 41.25624 | -8.32717 | 13328 ft | 346 kts | 115° |
| 2026-05-07 19:20 | 41.24678 | -8.29758 | 14143 ft | 349 kts | 115° |
| 2026-05-07 19:20 | 41.23717 | -8.26760 | 14818 ft | 356 kts | 115° |
| 2026-05-07 19:21 | 41.22747 | -8.23741 | 15596 ft | 360 kts | 115° |
| 2026-05-07 19:21 | 41.21759 | -8.20675 | 16277 ft | 365 kts | 115° |
| 2026-05-07 19:21 | 41.20760 | -8.17574 | 16918 ft | 372 kts | 115° |
| 2026-05-07 19:21 | 41.19733 | -8.14394 | 17669 ft | 375 kts | 115° |
| 2026-05-07 19:22 | 41.18709 | -8.11223 | 18318 ft | 380 kts | 115° |
| 2026-05-07 19:22 | 41.17665 | -8.07994 | 18911 ft | 386 kts | 115° |
| 2026-05-07 19:22 | 41.16603 | -8.04713 | 19550 ft | 390 kts | 115° |
| 2026-05-07 19:22 | 41.15521 | -8.01378 | 20145 ft | 395 kts | 114° |
| 2026-05-07 19:23 | 41.14430 | -7.98018 | 20741 ft | 400 kts | 114° |
| 2026-05-07 19:23 | 41.13331 | -7.94636 | 21361 ft | 403 kts | 114° |
| 2026-05-07 19:23 | 41.12213 | -7.91198 | 21853 ft | 409 kts | 114° |
| 2026-05-07 19:23 | 41.11084 | -7.87731 | 22389 ft | 414 kts | 114° |
| 2026-05-07 19:24 | 41.09951 | -7.84259 | 22994 ft | 416 kts | 114° |
| 2026-05-07 19:24 | 41.08792 | -7.80708 | 23398 ft | 424 kts | 114° |
| 2026-05-07 19:24 | 41.07611 | -7.77090 | 24021 ft | 426 kts | 114° |
| 2026-05-07 19:24 | 41.06444 | -7.73523 | 24542 ft | 429 kts | 114° |
| 2026-05-07 19:25 | 41.05260 | -7.69907 | 25240 ft | 428 kts | 114° |
| 2026-05-07 19:25 | 41.04059 | -7.66248 | 25729 ft | 432 kts | 115° |
| 2026-05-07 19:25 | 41.02871 | -7.62630 | 26377 ft | 431 kts | 115° |
| 2026-05-07 19:25 | 41.01685 | -7.59024 | 26944 ft | 432 kts | 115° |
| 2026-05-07 19:26 | 41.00480 | -7.55365 | 27398 ft | 436 kts | 115° |
| 2026-05-07 19:26 | 40.99256 | -7.51656 | 27855 ft | 438 kts | 115° |
| 2026-05-07 19:26 | 40.98048 | -7.47996 | 28486 ft | 437 kts | 116° |
| 2026-05-07 19:26 | 40.96841 | -7.44344 | 28943 ft | 439 kts | 116° |
| 2026-05-07 19:27 | 40.95612 | -7.40635 | 29434 ft | 439 kts | 116° |
| 2026-05-07 19:27 | 40.94391 | -7.36953 | 29861 ft | 442 kts | 116° |
| 2026-05-07 19:27 | 40.93140 | -7.33187 | 30278 ft | 444 kts | 117° |
| 2026-05-07 19:27 | 40.91912 | -7.29492 | 30553 ft | 446 kts | 117° |
| 2026-05-07 19:28 | 40.90669 | -7.25756 | 30800 ft | 445 kts | 117° |
| 2026-05-07 19:28 | 40.89412 | -7.21982 | 30857 ft | 442 kts | 117° |
| 2026-05-07 19:28 | 40.86936 | -7.14553 | 30864 ft | 443 kts | 117° |
| 2026-05-07 19:29 | 40.84457 | -7.07140 | 30858 ft | 443 kts | 117° |
| 2026-05-07 19:29 | 40.81963 | -6.99711 | 30850 ft | 444 kts | 117° |
| 2026-05-07 19:30 | 40.79469 | -6.92297 | 30858 ft | 441 kts | 117° |
| 2026-05-07 19:30 | 40.76967 | -6.84888 | 30857 ft | 446 kts | 117° |
| 2026-05-07 19:31 | 40.74450 | -6.77446 | 30870 ft | 444 kts | 117° |
| 2026-05-07 19:31 | 40.71938 | -6.70042 | 30875 ft | 447 kts | 117° |
| 2026-05-07 19:32 | 40.69406 | -6.62595 | 30883 ft | 447 kts | 117° |
| 2026-05-07 19:32 | 40.66871 | -6.55170 | 30883 ft | 446 kts | 117° |
| 2026-05-07 19:33 | 40.64317 | -6.47708 | 30881 ft | 448 kts | 117° |
| 2026-05-07 19:33 | 40.61750 | -6.40223 | 30885 ft | 448 kts | 117° |
| 2026-05-07 19:34 | 40.59273 | -6.32691 | 30881 ft | 449 kts | 113° |
| 2026-05-07 19:34 | 40.57719 | -6.24731 | 30894 ft | 453 kts | 101° |
| 2026-05-07 19:35 | 40.56842 | -6.16468 | 31024 ft | 464 kts | 97° |
| 2026-05-07 19:35 | 40.56464 | -6.12226 | 31376 ft | 467 kts | 98° |
| 2026-05-07 19:35 | 40.56091 | -6.08040 | 31660 ft | 467 kts | 98° |
| 2026-05-07 19:36 | 40.55710 | -6.03824 | 31859 ft | 465 kts | 98° |
| 2026-05-07 19:36 | 40.55315 | -5.99561 | 31890 ft | 467 kts | 97° |
| 2026-05-07 19:36 | 40.54520 | -5.91217 | 31890 ft | 464 kts | 98° |
| 2026-05-07 19:37 | 40.53696 | -5.82823 | 31882 ft | 467 kts | 98° |
| 2026-05-07 19:37 | 40.52858 | -5.74415 | 31899 ft | 464 kts | 98° |
| 2026-05-07 19:38 | 40.52015 | -5.66031 | 31895 ft | 465 kts | 98° |
| 2026-05-07 19:38 | 40.51160 | -5.57613 | 31898 ft | 464 kts | 98° |
| 2026-05-07 19:39 | 40.50296 | -5.49174 | 31902 ft | 468 kts | 97° |
| 2026-05-07 19:39 | 40.49432 | -5.40758 | 31907 ft | 466 kts | 97° |
| 2026-05-07 19:40 | 40.48561 | -5.32343 | 31912 ft | 468 kts | 98° |
| 2026-05-07 19:40 | 40.47676 | -5.23874 | 31915 ft | 466 kts | 98° |
| 2026-05-07 19:41 | 40.46788 | -5.15446 | 31919 ft | 468 kts | 98° |
| 2026-05-07 19:41 | 40.45888 | -5.06978 | 31922 ft | 470 kts | 97° |
| 2026-05-07 19:42 | 40.44981 | -4.98497 | 31926 ft | 469 kts | 98° |
| 2026-05-07 19:42 | 40.44074 | -4.90074 | 31925 ft | 468 kts | 97° |
| 2026-05-07 19:43 | 40.43156 | -4.81614 | 31927 ft | 470 kts | 98° |
| 2026-05-07 19:43 | 40.42229 | -4.73122 | 31928 ft | 470 kts | 97° |
| 2026-05-07 19:44 | 40.41299 | -4.64658 | 31922 ft | 470 kts | 98° |
| 2026-05-07 19:44 | 40.40358 | -4.56151 | 31925 ft | 473 kts | 97° |
| 2026-05-07 19:45 | 40.39414 | -4.47671 | 32085 ft | 469 kts | 97° |
| 2026-05-07 19:45 | 40.38941 | -4.43433 | 32358 ft | 472 kts | 97° |
| 2026-05-07 19:45 | 40.38464 | -4.39174 | 32635 ft | 474 kts | 97° |
| 2026-05-07 19:46 | 40.37994 | -4.35002 | 32901 ft | 474 kts | 97° |
| 2026-05-07 19:46 | 40.37499 | -4.30626 | 33141 ft | 478 kts | 98° |
| 2026-05-07 19:46 | 40.37009 | -4.26305 | 33242 ft | 486 kts | 98° |
| 2026-05-07 19:46 | 40.36475 | -4.21941 | 33323 ft | 494 kts | 101° |
| 2026-05-07 19:47 | 40.35798 | -4.17500 | 33523 ft | 500 kts | 102° |
| 2026-05-07 19:47 | 40.35032 | -4.13084 | 34007 ft | 499 kts | 104° |
| 2026-05-07 19:47 | 40.34226 | -4.08686 | 34492 ft | 497 kts | 104° |
| 2026-05-07 19:47 | 40.33400 | -4.04248 | 34743 ft | 499 kts | 104° |
| 2026-05-07 19:48 | 40.32581 | -3.99844 | 34904 ft | 500 kts | 104° |
| 2026-05-07 19:48 | 40.31766 | -3.95426 | 34931 ft | 498 kts | 104° |
| 2026-05-07 19:48 | 40.30185 | -3.86712 | 34941 ft | 495 kts | 103° |
| 2026-05-07 19:49 | 40.28596 | -3.77851 | 34939 ft | 497 kts | 103° |
| 2026-05-07 19:49 | 40.27021 | -3.69050 | 34934 ft | 496 kts | 103° |
| 2026-05-07 19:50 | 40.25460 | -3.60333 | 34929 ft | 498 kts | 103° |
| 2026-05-07 19:50 | 40.23885 | -3.51568 | 34937 ft | 496 kts | 103° |
| 2026-05-07 19:51 | 40.22301 | -3.42788 | 34935 ft | 498 kts | 103° |
| 2026-05-07 19:51 | 40.20702 | -3.33978 | 34940 ft | 497 kts | 103° |
| 2026-05-07 19:52 | 40.19101 | -3.25188 | 34945 ft | 497 kts | 104° |
| 2026-05-07 19:52 | 40.17493 | -3.16417 | 34945 ft | 497 kts | 104° |
| 2026-05-07 19:53 | 40.15885 | -3.07656 | 34959 ft | 499 kts | 103° |
| 2026-05-07 19:53 | 40.14264 | -2.98868 | 34964 ft | 498 kts | 104° |
| 2026-05-07 19:54 | 40.12624 | -2.90040 | 34957 ft | 499 kts | 103° |
| 2026-05-07 19:54 | 40.10981 | -2.81221 | 34961 ft | 498 kts | 103° |
| 2026-05-07 19:55 | 40.09342 | -2.72478 | 34962 ft | 499 kts | 103° |
| 2026-05-07 19:55 | 40.07686 | -2.63685 | 34949 ft | 498 kts | 103° |
| 2026-05-07 19:56 | 40.06023 | -2.54892 | 34973 ft | 499 kts | 103° |
| 2026-05-07 19:56 | 40.04365 | -2.46149 | 34950 ft | 502 kts | 103° |
| 2026-05-07 19:57 | 40.02690 | -2.37344 | 34959 ft | 503 kts | 103° |
| 2026-05-07 19:57 | 40.01006 | -2.28540 | 34967 ft | 501 kts | 104° |
| 2026-05-07 19:58 | 39.99308 | -2.19708 | 34972 ft | 503 kts | 104° |
| 2026-05-07 19:58 | 39.97495 | -2.10872 | 34965 ft | 504 kts | 106° |
| 2026-05-07 19:59 | 39.95472 | -2.02216 | 34962 ft | 503 kts | 108° |
| 2026-05-07 19:59 | 39.93382 | -1.93540 | 34963 ft | 502 kts | 108° |
| 2026-05-07 20:00 | 39.91310 | -1.84898 | 35014 ft | 501 kts | 108° |
| 2026-05-07 20:00 | 39.89251 | -1.76235 | 34949 ft | 500 kts | 107° |
| 2026-05-07 20:01 | 39.87197 | -1.67557 | 34950 ft | 500 kts | 107° |
| 2026-05-07 20:01 | 39.85149 | -1.58914 | 34998 ft | 500 kts | 107° |
| 2026-05-07 20:02 | 39.83112 | -1.50310 | 34986 ft | 497 kts | 107° |
| 2026-05-07 20:02 | 39.81076 | -1.41736 | 34965 ft | 495 kts | 107° |
| 2026-05-07 20:03 | 39.78862 | -1.33260 | 34981 ft | 496 kts | 109° |
| 2026-05-07 20:03 | 39.76717 | -1.24809 | 34981 ft | 498 kts | 108° |
| 2026-05-07 20:04 | 39.74613 | -1.16305 | 34976 ft | 494 kts | 108° |
| 2026-05-07 20:04 | 39.72503 | -1.07810 | 34994 ft | 495 kts | 108° |
| 2026-05-07 20:05 | 39.70379 | -0.99358 | 34988 ft | 493 kts | 108° |
| 2026-05-07 20:05 | 39.68233 | -0.90897 | 34992 ft | 492 kts | 108° |
| 2026-05-07 20:06 | 39.66092 | -0.82507 | 34982 ft | 493 kts | 109° |
| 2026-05-07 20:06 | 39.63920 | -0.74036 | 34978 ft | 494 kts | 108° |
| 2026-05-07 20:07 | 39.61765 | -0.65656 | 34988 ft | 495 kts | 109° |
| 2026-05-07 20:07 | 39.59593 | -0.57242 | 34997 ft | 493 kts | 108° |
| 2026-05-07 20:08 | 39.57398 | -0.48763 | 35004 ft | 493 kts | 108° |
| 2026-05-07 20:08 | 39.55236 | -0.40425 | 34989 ft | 491 kts | 108° |
| 2026-05-07 20:09 | 39.53046 | -0.32019 | 34983 ft | 495 kts | 109° |
| 2026-05-07 20:10 | 39.49751 | -0.19430 | 34981 ft | 492 kts | 109° |
| 2026-05-07 20:10 | 39.47559 | -0.11093 | 34974 ft | 494 kts | 109° |
| 2026-05-07 20:11 | 39.45350 | -0.02717 | 34974 ft | 495 kts | 109° |
| 2026-05-07 20:11 | 39.43129 | 0.05687 | 34974 ft | 494 kts | 109° |
| 2026-05-07 20:12 | 39.40900 | 0.14081 | 34955 ft | 494 kts | 109° |
| 2026-05-07 20:12 | 39.38669 | 0.22446 | 34957 ft | 498 kts | 109° |
| 2026-05-07 20:13 | 39.36423 | 0.30849 | 34959 ft | 492 kts | 109° |
| 2026-05-07 20:13 | 39.35314 | 0.34993 | 34724 ft | 487 kts | 109° |
| 2026-05-07 20:13 | 39.34266 | 0.39179 | 33652 ft | 502 kts | 105° |
| 2026-05-07 20:13 | 39.33481 | 0.43574 | 32458 ft | 515 kts | 99° |
| 2026-05-07 20:14 | 39.33017 | 0.48156 | 31468 ft | 521 kts | 92° |
| 2026-05-07 20:14 | 39.32924 | 0.52738 | 31202 ft | 507 kts | 86° |
| 2026-05-07 20:14 | 39.33099 | 0.57247 | 30813 ft | 498 kts | 82° |
| 2026-05-07 20:14 | 39.33407 | 0.61659 | 30117 ft | 496 kts | 81° |
| 2026-05-07 20:15 | 39.33762 | 0.66088 | 29205 ft | 499 kts | 83° |
| 2026-05-07 20:15 | 39.34109 | 0.70541 | 28463 ft | 496 kts | 83° |
| 2026-05-07 20:15 | 39.34415 | 0.74903 | 27846 ft | 492 kts | 85° |
| 2026-05-07 20:15 | 39.34685 | 0.79258 | 27209 ft | 487 kts | 85° |
| 2026-05-07 20:16 | 39.34925 | 0.83589 | 26611 ft | 483 kts | 85° |
| 2026-05-07 20:16 | 39.35141 | 0.87878 | 26080 ft | 477 kts | 86° |
| 2026-05-07 20:16 | 39.35344 | 0.92118 | 25520 ft | 471 kts | 87° |
| 2026-05-07 20:16 | 39.35517 | 0.96279 | 24952 ft | 465 kts | 89° |
| 2026-05-07 20:17 | 39.35683 | 1.00385 | 24725 ft | 450 kts | 88° |
| 2026-05-07 20:17 | 39.35854 | 1.04336 | 24514 ft | 434 kts | 88° |
| 2026-05-07 20:17 | 39.36016 | 1.08172 | 24258 ft | 420 kts | 88° |
| 2026-05-07 20:17 | 39.36182 | 1.11907 | 23717 ft | 415 kts | 88° |
| 2026-05-07 20:18 | 39.36353 | 1.15560 | 23070 ft | 412 kts | 88° |
| 2026-05-07 20:18 | 39.36505 | 1.19260 | 22399 ft | 409 kts | 88° |
| 2026-05-07 20:18 | 39.36642 | 1.22899 | 21803 ft | 404 kts | 88° |
| 2026-05-07 20:18 | 39.36773 | 1.26465 | 21213 ft | 400 kts | 88° |
| 2026-05-07 20:19 | 39.36904 | 1.30021 | 20595 ft | 396 kts | 88° |
| 2026-05-07 20:19 | 39.37037 | 1.33563 | 19995 ft | 392 kts | 88° |
| 2026-05-07 20:19 | 39.37170 | 1.37056 | 19399 ft | 388 kts | 88° |
| 2026-05-07 20:19 | 39.37309 | 1.40492 | 18858 ft | 385 kts | 87° |
| 2026-05-07 20:20 | 39.37583 | 1.43921 | 18310 ft | 382 kts | 83° |
| 2026-05-07 20:20 | 39.37995 | 1.47251 | 17745 ft | 380 kts | 81° |
| 2026-05-07 20:20 | 39.38472 | 1.50583 | 17236 ft | 377 kts | 80° |
| 2026-05-07 20:20 | 39.39146 | 1.53836 | 16709 ft | 374 kts | 68° |
| 2026-05-07 20:21 | 39.40531 | 1.56651 | 16226 ft | 371 kts | 49° |
| 2026-05-07 20:21 | 39.42321 | 1.59031 | 15712 ft | 368 kts | 45° |
| 2026-05-07 20:21 | 39.44127 | 1.61324 | 15188 ft | 365 kts | 45° |
| 2026-05-07 20:21 | 39.45904 | 1.63604 | 14744 ft | 360 kts | 45° |
| 2026-05-07 20:22 | 39.47662 | 1.65869 | 14571 ft | 346 kts | 46° |
| 2026-05-07 20:22 | 39.49327 | 1.68009 | 14485 ft | 332 kts | 45° |
| 2026-05-07 20:22 | 39.50936 | 1.70065 | 14340 ft | 320 kts | 46° |
| 2026-05-07 20:22 | 39.52496 | 1.72067 | 13966 ft | 318 kts | 46° |
| 2026-05-07 20:23 | 39.54070 | 1.74072 | 13552 ft | 316 kts | 46° |
| 2026-05-07 20:23 | 39.55640 | 1.76082 | 13206 ft | 312 kts | 47° |
| 2026-05-07 20:23 | 39.56912 | 1.78297 | 12812 ft | 308 kts | 65° |
| 2026-05-07 20:23 | 39.57560 | 1.80894 | 12434 ft | 304 kts | 77° |
| 2026-05-07 20:24 | 39.58023 | 1.83551 | 12021 ft | 303 kts | 78° |
| 2026-05-07 20:24 | 39.58503 | 1.86200 | 11652 ft | 300 kts | 77° |
| 2026-05-07 20:24 | 39.58987 | 1.88797 | 11270 ft | 298 kts | 77° |
| 2026-05-07 20:24 | 39.59473 | 1.91404 | 10858 ft | 297 kts | 77° |
| 2026-05-07 20:25 | 39.59961 | 1.93979 | 10509 ft | 293 kts | 77° |
| 2026-05-07 20:25 | 39.60441 | 1.96513 | 10380 ft | 282 kts | 77° |
| 2026-05-07 20:25 | 39.60900 | 1.98954 | 10102 ft | 278 kts | 77° |
| 2026-05-07 20:25 | 39.61348 | 2.01360 | 9770 ft | 275 kts | 76° |
| 2026-05-07 20:26 | 39.61780 | 2.03749 | 9424 ft | 274 kts | 77° |
| 2026-05-07 20:26 | 39.62202 | 2.06142 | 9067 ft | 273 kts | 77° |
| 2026-05-07 20:26 | 39.62624 | 2.08532 | 8706 ft | 271 kts | 78° |
| 2026-05-07 20:26 | 39.62679 | 2.10946 | 8306 ft | 272 kts | 103° |
| 2026-05-07 20:27 | 39.61750 | 2.13053 | 7921 ft | 274 kts | 135° |
| 2026-05-07 20:27 | 39.60211 | 2.14501 | 7599 ft | 271 kts | 143° |
| 2026-05-07 20:27 | 39.58884 | 2.16146 | 7243 ft | 266 kts | 121° |
| 2026-05-07 20:27 | 39.58268 | 2.18357 | 6817 ft | 262 kts | 93° |
| 2026-05-07 20:28 | 39.58369 | 2.20704 | 6410 ft | 261 kts | 84° |
| 2026-05-07 20:28 | 39.58441 | 2.23018 | 6093 ft | 260 kts | 95° |
| 2026-05-07 20:28 | 39.57925 | 2.25246 | 5772 ft | 259 kts | 113° |
| 2026-05-07 20:28 | 39.57187 | 2.27370 | 5457 ft | 255 kts | 108° |
| 2026-05-07 20:29 | 39.56696 | 2.29575 | 5115 ft | 253 kts | 103° |
| 2026-05-07 20:29 | 39.56306 | 2.31783 | 4971 ft | 252 kts | 101° |
| 2026-05-07 20:29 | 39.55959 | 2.33961 | 4969 ft | 239 kts | 100° |
| 2026-05-07 20:29 | 39.55654 | 2.36023 | 4965 ft | 228 kts | 103° |
| 2026-05-07 20:30 | 39.55303 | 2.38007 | 4983 ft | 225 kts | 104° |
| 2026-05-07 20:30 | 39.54556 | 2.39760 | 4985 ft | 230 kts | 133° |
| 2026-05-07 20:30 | 39.53157 | 2.40790 | 4976 ft | 233 kts | 168° |
| 2026-05-07 20:30 | 39.51588 | 2.40455 | 4991 ft | 237 kts | 210° |
| 2026-05-07 20:31 | 39.50397 | 2.38982 | 4995 ft | 238 kts | 231° |
| 2026-05-07 20:31 | 39.49332 | 2.37358 | 4976 ft | 232 kts | 223° |
| 2026-05-07 20:31 | 39.48183 | 2.35897 | 4980 ft | 232 kts | 226° |
| 2026-05-07 20:31 | 39.47278 | 2.34176 | 4960 ft | 237 kts | 246° |
| 2026-05-07 20:32 | 39.47013 | 2.32072 | 4966 ft | 237 kts | 275° |
| 2026-05-07 20:32 | 39.47198 | 2.29940 | 4967 ft | 240 kts | 280° |
| 2026-05-07 20:32 | 39.47758 | 2.27954 | 4979 ft | 234 kts | 305° |
| 2026-05-07 20:32 | 39.48960 | 2.26583 | 4977 ft | 231 kts | 336° |
| 2026-05-07 20:33 | 39.50498 | 2.26220 | 4964 ft | 222 kts | 9° |
| 2026-05-07 20:33 | 39.51924 | 2.26879 | 4968 ft | 220 kts | 39° |
| 2026-05-07 20:33 | 39.52827 | 2.28424 | 4950 ft | 215 kts | 74° |
| 2026-05-07 20:33 | 39.52747 | 2.30313 | 4963 ft | 215 kts | 114° |
| 2026-05-07 20:34 | 39.51848 | 2.31857 | 4992 ft | 220 kts | 129° |
| 2026-05-07 20:34 | 39.50860 | 2.33379 | 4977 ft | 218 kts | 125° |
| 2026-05-07 20:34 | 39.50015 | 2.35015 | 4946 ft | 219 kts | 118° |
| 2026-05-07 20:34 | 39.49195 | 2.36692 | 4713 ft | 220 kts | 122° |
| 2026-05-07 20:35 | 39.48307 | 2.38291 | 4465 ft | 219 kts | 123° |
| 2026-05-07 20:35 | 39.47415 | 2.39903 | 4224 ft | 219 kts | 121° |
| 2026-05-07 20:35 | 39.46571 | 2.41524 | 3975 ft | 218 kts | 121° |
| 2026-05-07 20:35 | 39.45721 | 2.43172 | 3720 ft | 218 kts | 119° |
| 2026-05-07 20:36 | 39.45002 | 2.44866 | 3470 ft | 216 kts | 110° |
| 2026-05-07 20:36 | 39.44724 | 2.46759 | 3211 ft | 213 kts | 88° |
| 2026-05-07 20:36 | 39.44828 | 2.48633 | 3010 ft | 208 kts | 84° |
| 2026-05-07 20:36 | 39.44952 | 2.50445 | 2984 ft | 196 kts | 85° |
| 2026-05-07 20:37 | 39.45051 | 2.52156 | 2978 ft | 182 kts | 81° |
| 2026-05-07 20:37 | 39.45496 | 2.53631 | 2994 ft | 178 kts | 57° |
| 2026-05-07 20:37 | 39.46301 | 2.54864 | 2999 ft | 180 kts | 41° |
| 2026-05-07 20:37 | 39.47251 | 2.55926 | 2840 ft | 182 kts | 51° |
| 2026-05-07 20:38 | 39.47974 | 2.57243 | 2533 ft | 181 kts | 58° |
| 2026-05-07 20:38 | 39.48674 | 2.58589 | 2278 ft | 178 kts | 58° |
| 2026-05-07 20:38 | 39.49340 | 2.59916 | 2035 ft | 174 kts | 59° |
| 2026-05-07 20:38 | 39.49987 | 2.61241 | 1798 ft | 171 kts | 59° |
| 2026-05-07 20:39 | 39.50602 | 2.62509 | 1573 ft | 161 kts | 59° |
| 2026-05-07 20:39 | 39.51167 | 2.63684 | 1356 ft | 147 kts | 59° |
| 2026-05-07 20:39 | 39.51687 | 2.64770 | 1167 ft | 141 kts | 59° |
| 2026-05-07 20:39 | 39.52213 | 2.65871 | 974 ft | 141 kts | 59° |
| 2026-05-07 20:40 | 39.52735 | 2.66941 | 785 ft | 140 kts | 58° |
| 2026-05-07 20:40 | 39.53258 | 2.67999 | 637 ft | 142 kts | 59° |
| 2026-05-07 20:40 | 39.53772 | 2.69102 | 419 ft | 140 kts | 60° |
| 2026-05-07 20:40 | 39.54283 | 2.70165 | 232 ft | 141 kts | 58° |
| 2026-05-07 20:41 | 39.54799 | 2.71252 | 25 ft | 141 kts | 58° |
| 2026-05-07 20:41 | 39.55256 | 2.72217 | 4 ft | 101 kts | 58° |
| 2026-05-07 20:41 | 39.55537 | 2.72808 | 7 ft | 54 kts | 61° |
| 2026-05-07 20:41 | 39.55679 | 2.73143 | 10 ft | 38 kts | 72° |
| 2026-05-07 20:42 | 39.55709 | 2.73433 | 11 ft | 18 kts | 89° |
| 2026-05-07 20:42 | 39.55706 | 2.73517 | 11 ft | 0 kts | 128° |
| 2026-05-07 20:42 | 39.55700 | 2.73525 | 11 ft | 4 kts | 134° |
| 2026-05-07 20:42 | 39.55657 | 2.73509 | 13 ft | 8 kts | 235° |
| 2026-05-07 20:43 | 39.55621 | 2.73502 | 14 ft | 5 kts | 158° |
| 2026-05-07 20:43 | 39.55598 | 2.73519 | 14 ft | 2 kts | 146° |
| 2026-05-07 20:43 | 39.55572 | 2.73542 | 16 ft | 4 kts | 147° |
| 2026-05-07 20:43 | 39.55552 | 2.73558 | 17 ft | 4 kts | 150° |
| 2026-05-07 20:44 | 39.55516 | 2.73575 | 19 ft | 5 kts | 186° |
| 2026-05-07 20:44 | 39.55488 | 2.73541 | 20 ft | 8 kts | 235° |
| 2026-05-07 20:44 | 39.55444 | 2.73465 | 22 ft | 9 kts | 214° |
| 2026-05-07 20:44 | 39.55371 | 2.73485 | 25 ft | 14 kts | 149° |
| 2026-05-07 20:45 | 39.55306 | 2.73535 | 33 ft | 10 kts | 149° |
| 2026-05-07 20:45 | 39.55235 | 2.73589 | 40 ft | 10 kts | 149° |
| 2026-05-07 20:45 | 39.55176 | 2.73631 | 41 ft | 9 kts | 168° |
| 2026-05-07 20:45 | 39.55125 | 2.73582 | 39 ft | 10 kts | 237° |
| 2026-05-07 20:46 | 39.55074 | 2.73475 | 30 ft | 15 kts | 239° |
| 2026-05-07 20:46 | 39.55049 | 2.73433 | 27 ft | 3 kts | 196° |
| 2026-05-07 20:46 | 39.55020 | 2.73437 | 27 ft | 3 kts | 166° |
| 2026-05-07 20:46 | 39.55000 | 2.73443 | 27 ft | 0 kts | 164° |